sensor_id;sensor_type;location;lat;lon;timestamp;P1;durP1;ratioP1;P2;durP2;ratioP2
21777;SDS011;11050;52.222;20.916;2023-03-14T00:02:25;10.43;;;6.10;;
21777;SDS011;11050;52.222;20.916;2023-03-14T00:04:53;13.83;;;7.17;;
21777;SDS011;11050;52.222;20.916;2023-03-14T00:07:21;13.17;;;6.30;;
21777;SDS011;11050;52.222;20.916;2023-03-14T00:09:49;12.20;;;7.03;;
21777;SDS011;11050;52.222;20.916;2023-03-14T00:12:15;13.60;;;6.70;;
21777;SDS011;11050;52.222;20.916;2023-03-14T00:14:41;12.60;;;6.73;;
21777;SDS011;11050;52.222;20.916;2023-03-14T00:17:08;14.63;;;7.20;;
21777;SDS011;11050;52.222;20.916;2023-03-14T00:19:34;14.33;;;6.97;;
21777;SDS011;11050;52.222;20.916;2023-03-14T00:22:00;15.10;;;7.20;;
21777;SDS011;11050;52.222;20.916;2023-03-14T00:24:26;14.13;;;6.90;;
21777;SDS011;11050;52.222;20.916;2023-03-14T00:26:51;13.37;;;6.93;;
21777;SDS011;11050;52.222;20.916;2023-03-14T00:29:17;14.87;;;7.20;;
21777;SDS011;11050;52.222;20.916;2023-03-14T00:31:43;15.23;;;6.97;;
21777;SDS011;11050;52.222;20.916;2023-03-14T00:34:08;13.20;;;7.00;;
21777;SDS011;11050;52.222;20.916;2023-03-14T00:36:34;12.93;;;6.77;;
21777;SDS011;11050;52.222;20.916;2023-03-14T00:39:00;12.57;;;6.70;;
21777;SDS011;11050;52.222;20.916;2023-03-14T00:41:25;12.43;;;7.20;;
21777;SDS011;11050;52.222;20.916;2023-03-14T00:43:51;11.53;;;7.00;;
21777;SDS011;11050;52.222;20.916;2023-03-14T00:46:17;16.90;;;7.50;;
21777;SDS011;11050;52.222;20.916;2023-03-14T00:48:46;14.30;;;7.17;;
21777;SDS011;11050;52.222;20.916;2023-03-14T00:51:15;15.27;;;7.13;;
21777;SDS011;11050;52.222;20.916;2023-03-14T00:53:41;15.40;;;7.83;;
21777;SDS011;11050;52.222;20.916;2023-03-14T00:56:09;13.00;;;7.53;;
21777;SDS011;11050;52.222;20.916;2023-03-14T00:58:37;11.97;;;7.17;;
21777;SDS011;11050;52.222;20.916;2023-03-14T01:01:12;14.33;;;7.67;;
21777;SDS011;11050;52.222;20.916;2023-03-14T01:03:44;15.27;;;7.37;;
21777;SDS011;11050;52.222;20.916;2023-03-14T01:06:11;15.67;;;7.57;;
21777;SDS011;11050;52.222;20.916;2023-03-14T01:08:43;14.70;;;7.50;;
21777;SDS011;11050;52.222;20.916;2023-03-14T01:11:12;14.70;;;7.60;;
21777;SDS011;11050;52.222;20.916;2023-03-14T01:13:45;15.53;;;7.63;;
21777;SDS011;11050;52.222;20.916;2023-03-14T01:16:11;14.00;;;7.03;;
21777;SDS011;11050;52.222;20.916;2023-03-14T01:18:39;14.60;;;8.00;;
21777;SDS011;11050;52.222;20.916;2023-03-14T01:21:30;16.03;;;7.70;;
21777;SDS011;11050;52.222;20.916;2023-03-14T01:23:58;14.83;;;7.17;;
21777;SDS011;11050;52.222;20.916;2023-03-14T01:26:26;13.43;;;7.83;;
21777;SDS011;11050;52.222;20.916;2023-03-14T01:28:56;13.80;;;7.07;;
21777;SDS011;11050;52.222;20.916;2023-03-14T01:31:23;10.93;;;6.80;;
21777;SDS011;11050;52.222;20.916;2023-03-14T01:33:50;14.83;;;7.60;;
21777;SDS011;11050;52.222;20.916;2023-03-14T01:36:16;13.20;;;7.40;;
21777;SDS011;11050;52.222;20.916;2023-03-14T01:38:42;12.50;;;7.17;;
21777;SDS011;11050;52.222;20.916;2023-03-14T01:41:13;12.13;;;7.33;;
21777;SDS011;11050;52.222;20.916;2023-03-14T01:43:41;11.67;;;6.90;;
21777;SDS011;11050;52.222;20.916;2023-03-14T01:54:02;13.67;;;7.63;;
21777;SDS011;11050;52.222;20.916;2023-03-14T01:56:40;12.47;;;6.80;;
21777;SDS011;11050;52.222;20.916;2023-03-14T01:59:11;13.97;;;7.13;;
21777;SDS011;11050;52.222;20.916;2023-03-14T02:01:38;12.63;;;7.07;;
21777;SDS011;11050;52.222;20.916;2023-03-14T02:04:09;13.03;;;6.97;;
21777;SDS011;11050;52.222;20.916;2023-03-14T02:09:27;12.90;;;7.03;;
21777;SDS011;11050;52.222;20.916;2023-03-14T02:11:55;14.30;;;7.13;;
21777;SDS011;11050;52.222;20.916;2023-03-14T02:14:24;12.17;;;6.70;;
21777;SDS011;11050;52.222;20.916;2023-03-14T02:17:03;15.80;;;7.30;;
21777;SDS011;11050;52.222;20.916;2023-03-14T02:22:15;12.47;;;6.70;;
21777;SDS011;11050;52.222;20.916;2023-03-14T02:27:14;12.47;;;6.83;;
21777;SDS011;11050;52.222;20.916;2023-03-14T02:30:02;12.73;;;6.70;;
21777;SDS011;11050;52.222;20.916;2023-03-14T02:32:40;15.43;;;7.10;;
21777;SDS011;11050;52.222;20.916;2023-03-14T02:35:11;13.17;;;7.10;;
21777;SDS011;11050;52.222;20.916;2023-03-14T02:37:46;14.10;;;6.67;;
21777;SDS011;11050;52.222;20.916;2023-03-14T02:40:18;11.70;;;6.60;;
21777;SDS011;11050;52.222;20.916;2023-03-14T02:42:44;13.63;;;6.97;;
21777;SDS011;11050;52.222;20.916;2023-03-14T02:47:37;12.07;;;6.23;;
21777;SDS011;11050;52.222;20.916;2023-03-14T02:50:19;11.10;;;5.90;;
21777;SDS011;11050;52.222;20.916;2023-03-14T02:52:49;15.97;;;6.80;;
21777;SDS011;11050;52.222;20.916;2023-03-14T02:55:19;10.67;;;6.37;;
21777;SDS011;11050;52.222;20.916;2023-03-14T02:57:46;12.13;;;6.77;;
21777;SDS011;11050;52.222;20.916;2023-03-14T03:00:12;14.70;;;7.53;;
21777;SDS011;11050;52.222;20.916;2023-03-14T03:02:38;10.67;;;6.17;;
21777;SDS011;11050;52.222;20.916;2023-03-14T03:05:04;11.43;;;6.27;;
21777;SDS011;11050;52.222;20.916;2023-03-14T03:07:30;13.03;;;6.53;;
21777;SDS011;11050;52.222;20.916;2023-03-14T03:09:56;9.43;;;5.63;;
21777;SDS011;11050;52.222;20.916;2023-03-14T03:12:21;12.07;;;5.80;;
21777;SDS011;11050;52.222;20.916;2023-03-14T03:14:47;13.37;;;5.57;;
21777;SDS011;11050;52.222;20.916;2023-03-14T03:17:13;11.27;;;5.60;;
21777;SDS011;11050;52.222;20.916;2023-03-14T03:19:38;11.13;;;5.50;;
21777;SDS011;11050;52.222;20.916;2023-03-14T03:22:04;10.43;;;5.73;;
21777;SDS011;11050;52.222;20.916;2023-03-14T03:24:30;9.60;;;5.40;;
21777;SDS011;11050;52.222;20.916;2023-03-14T03:26:55;11.03;;;5.50;;
21777;SDS011;11050;52.222;20.916;2023-03-14T03:29:21;9.40;;;5.40;;
21777;SDS011;11050;52.222;20.916;2023-03-14T03:31:47;10.57;;;5.43;;
21777;SDS011;11050;52.222;20.916;2023-03-14T03:34:13;12.07;;;5.90;;
21777;SDS011;11050;52.222;20.916;2023-03-14T03:36:39;11.97;;;5.37;;
21777;SDS011;11050;52.222;20.916;2023-03-14T03:39:05;9.33;;;5.60;;
21777;SDS011;11050;52.222;20.916;2023-03-14T03:41:31;10.07;;;5.67;;
21777;SDS011;11050;52.222;20.916;2023-03-14T03:43:57;9.87;;;5.30;;
21777;SDS011;11050;52.222;20.916;2023-03-14T03:46:23;11.30;;;6.17;;
21777;SDS011;11050;52.222;20.916;2023-03-14T03:48:56;9.13;;;4.90;;
21777;SDS011;11050;52.222;20.916;2023-03-14T03:51:24;9.37;;;5.03;;
21777;SDS011;11050;52.222;20.916;2023-03-14T03:53:50;7.57;;;4.87;;
21777;SDS011;11050;52.222;20.916;2023-03-14T03:56:16;8.70;;;4.70;;
21777;SDS011;11050;52.222;20.916;2023-03-14T03:58:42;10.67;;;5.03;;
21777;SDS011;11050;52.222;20.916;2023-03-14T04:01:09;10.10;;;5.07;;
21777;SDS011;11050;52.222;20.916;2023-03-14T04:03:35;9.60;;;4.83;;
21777;SDS011;11050;52.222;20.916;2023-03-14T04:08:33;11.87;;;4.63;;
21777;SDS011;11050;52.222;20.916;2023-03-14T04:10:59;8.93;;;4.80;;
21777;SDS011;11050;52.222;20.916;2023-03-14T04:13:27;7.53;;;4.63;;
21777;SDS011;11050;52.222;20.916;2023-03-14T04:15:53;10.23;;;4.80;;
21777;SDS011;11050;52.222;20.916;2023-03-14T04:18:21;9.43;;;4.70;;
21777;SDS011;11050;52.222;20.916;2023-03-14T04:20:53;8.13;;;4.63;;
21777;SDS011;11050;52.222;20.916;2023-03-14T04:23:20;9.57;;;4.87;;
21777;SDS011;11050;52.222;20.916;2023-03-14T04:25:49;8.77;;;4.83;;
21777;SDS011;11050;52.222;20.916;2023-03-14T04:28:16;9.03;;;5.30;;
21777;SDS011;11050;52.222;20.916;2023-03-14T04:30:42;8.77;;;4.93;;
21777;SDS011;11050;52.222;20.916;2023-03-14T04:33:08;10.57;;;4.80;;
21777;SDS011;11050;52.222;20.916;2023-03-14T04:35:34;8.20;;;4.87;;
21777;SDS011;11050;52.222;20.916;2023-03-14T04:38:00;9.37;;;4.87;;
21777;SDS011;11050;52.222;20.916;2023-03-14T04:40:26;7.47;;;4.10;;
21777;SDS011;11050;52.222;20.916;2023-03-14T04:42:52;9.03;;;4.47;;
21777;SDS011;11050;52.222;20.916;2023-03-14T04:45:18;9.10;;;4.90;;
21777;SDS011;11050;52.222;20.916;2023-03-14T04:47:44;7.77;;;4.30;;
21777;SDS011;11050;52.222;20.916;2023-03-14T04:50:09;7.90;;;5.07;;
21777;SDS011;11050;52.222;20.916;2023-03-14T04:52:35;7.10;;;4.53;;
21777;SDS011;11050;52.222;20.916;2023-03-14T04:55:01;7.87;;;4.47;;
21777;SDS011;11050;52.222;20.916;2023-03-14T04:57:27;9.67;;;4.73;;
21777;SDS011;11050;52.222;20.916;2023-03-14T04:59:53;9.20;;;4.60;;
21777;SDS011;11050;52.222;20.916;2023-03-14T05:02:19;10.37;;;4.17;;
21777;SDS011;11050;52.222;20.916;2023-03-14T05:04:44;8.77;;;4.53;;
21777;SDS011;11050;52.222;20.916;2023-03-14T05:07:10;7.63;;;4.30;;
21777;SDS011;11050;52.222;20.916;2023-03-14T05:09:36;9.00;;;4.83;;
21777;SDS011;11050;52.222;20.916;2023-03-14T05:12:01;9.03;;;4.63;;
21777;SDS011;11050;52.222;20.916;2023-03-14T05:14:27;7.47;;;4.40;;
21777;SDS011;11050;52.222;20.916;2023-03-14T05:16:53;9.67;;;4.83;;
21777;SDS011;11050;52.222;20.916;2023-03-14T05:19:19;9.37;;;4.57;;
21777;SDS011;11050;52.222;20.916;2023-03-14T05:21:45;10.43;;;4.73;;
21777;SDS011;11050;52.222;20.916;2023-03-14T05:24:10;9.90;;;5.00;;
21777;SDS011;11050;52.222;20.916;2023-03-14T05:26:36;13.23;;;5.17;;
21777;SDS011;11050;52.222;20.916;2023-03-14T05:29:02;7.17;;;4.70;;
21777;SDS011;11050;52.222;20.916;2023-03-14T05:31:28;8.53;;;4.90;;
21777;SDS011;11050;52.222;20.916;2023-03-14T05:33:53;8.80;;;4.97;;
21777;SDS011;11050;52.222;20.916;2023-03-14T05:36:19;9.77;;;5.40;;
21777;SDS011;11050;52.222;20.916;2023-03-14T05:38:45;8.97;;;4.80;;
21777;SDS011;11050;52.222;20.916;2023-03-14T05:41:11;8.33;;;4.93;;
21777;SDS011;11050;52.222;20.916;2023-03-14T05:43:37;8.90;;;5.27;;
21777;SDS011;11050;52.222;20.916;2023-03-14T05:46:02;11.20;;;5.20;;
21777;SDS011;11050;52.222;20.916;2023-03-14T05:48:28;7.03;;;4.27;;
21777;SDS011;11050;52.222;20.916;2023-03-14T05:50:55;8.63;;;4.77;;
21777;SDS011;11050;52.222;20.916;2023-03-14T05:53:22;8.87;;;4.63;;
21777;SDS011;11050;52.222;20.916;2023-03-14T05:55:50;10.73;;;5.30;;
21777;SDS011;11050;52.222;20.916;2023-03-14T05:58:20;12.50;;;5.13;;
21777;SDS011;11050;52.222;20.916;2023-03-14T06:00:46;10.37;;;4.77;;
21777;SDS011;11050;52.222;20.916;2023-03-14T06:03:12;8.37;;;4.60;;
21777;SDS011;11050;52.222;20.916;2023-03-14T06:05:38;7.23;;;4.30;;
21777;SDS011;11050;52.222;20.916;2023-03-14T06:08:04;7.60;;;4.53;;
21777;SDS011;11050;52.222;20.916;2023-03-14T06:10:30;9.10;;;5.07;;
21777;SDS011;11050;52.222;20.916;2023-03-14T06:12:56;9.97;;;5.13;;
21777;SDS011;11050;52.222;20.916;2023-03-14T06:15:22;8.80;;;5.00;;
21777;SDS011;11050;52.222;20.916;2023-03-14T06:17:47;9.03;;;4.90;;
21777;SDS011;11050;52.222;20.916;2023-03-14T06:20:13;9.93;;;4.67;;
21777;SDS011;11050;52.222;20.916;2023-03-14T06:22:39;12.40;;;5.27;;
21777;SDS011;11050;52.222;20.916;2023-03-14T06:25:05;10.17;;;4.63;;
21777;SDS011;11050;52.222;20.916;2023-03-14T06:27:32;7.37;;;4.73;;
21777;SDS011;11050;52.222;20.916;2023-03-14T06:29:58;6.77;;;4.33;;
21777;SDS011;11050;52.222;20.916;2023-03-14T06:32:24;13.03;;;5.00;;
21777;SDS011;11050;52.222;20.916;2023-03-14T06:34:50;9.43;;;4.43;;
21777;SDS011;11050;52.222;20.916;2023-03-14T06:37:16;8.83;;;4.60;;
21777;SDS011;11050;52.222;20.916;2023-03-14T06:39:41;7.17;;;4.00;;
21777;SDS011;11050;52.222;20.916;2023-03-14T06:42:09;7.97;;;3.97;;
21777;SDS011;11050;52.222;20.916;2023-03-14T06:44:35;9.23;;;4.80;;
21777;SDS011;11050;52.222;20.916;2023-03-14T06:47:01;9.10;;;4.40;;
21777;SDS011;11050;52.222;20.916;2023-03-14T06:49:27;8.57;;;4.50;;
21777;SDS011;11050;52.222;20.916;2023-03-14T06:51:53;7.27;;;5.20;;
21777;SDS011;11050;52.222;20.916;2023-03-14T06:54:19;7.53;;;4.63;;
21777;SDS011;11050;52.222;20.916;2023-03-14T06:56:44;7.30;;;4.65;;
21777;SDS011;11050;52.222;20.916;2023-03-14T06:59:10;9.10;;;4.53;;
21777;SDS011;11050;52.222;20.916;2023-03-14T07:01:36;9.52;;;5.00;;
21777;SDS011;11050;52.222;20.916;2023-03-14T07:04:02;9.60;;;5.40;;
21777;SDS011;11050;52.222;20.916;2023-03-14T07:06:27;11.25;;;5.30;;
21777;SDS011;11050;52.222;20.916;2023-03-14T07:08:56;8.52;;;4.18;;
21777;SDS011;11050;52.222;20.916;2023-03-14T07:11:22;9.13;;;4.95;;
21777;SDS011;11050;52.222;20.916;2023-03-14T07:13:49;7.57;;;4.32;;
21777;SDS011;11050;52.222;20.916;2023-03-14T07:16:15;8.98;;;4.80;;
21777;SDS011;11050;52.222;20.916;2023-03-14T07:18:41;9.73;;;4.95;;
21777;SDS011;11050;52.222;20.916;2023-03-14T07:21:07;9.13;;;4.90;;
21777;SDS011;11050;52.222;20.916;2023-03-14T07:23:37;11.50;;;4.95;;
21777;SDS011;11050;52.222;20.916;2023-03-14T07:26:04;8.88;;;4.80;;
21777;SDS011;11050;52.222;20.916;2023-03-14T07:28:30;15.07;;;5.03;;
21777;SDS011;11050;52.222;20.916;2023-03-14T07:30:56;14.60;;;4.82;;
21777;SDS011;11050;52.222;20.916;2023-03-14T07:33:22;8.93;;;5.03;;
21777;SDS011;11050;52.222;20.916;2023-03-14T07:35:48;10.52;;;5.38;;
21777;SDS011;11050;52.222;20.916;2023-03-14T07:38:15;9.10;;;5.68;;
21777;SDS011;11050;52.222;20.916;2023-03-14T07:40:41;9.88;;;5.20;;
21777;SDS011;11050;52.222;20.916;2023-03-14T07:43:07;9.63;;;5.05;;
21777;SDS011;11050;52.222;20.916;2023-03-14T07:45:33;10.20;;;5.10;;
21777;SDS011;11050;52.222;20.916;2023-03-14T07:47:59;8.55;;;5.18;;
21777;SDS011;11050;52.222;20.916;2023-03-14T07:50:27;9.27;;;5.38;;
21777;SDS011;11050;52.222;20.916;2023-03-14T07:52:53;10.43;;;4.88;;
21777;SDS011;11050;52.222;20.916;2023-03-14T07:55:19;12.65;;;5.47;;
21777;SDS011;11050;52.222;20.916;2023-03-14T07:57:45;6.13;;;4.53;;
21777;SDS011;11050;52.222;20.916;2023-03-14T08:00:11;10.40;;;4.68;;
21777;SDS011;11050;52.222;20.916;2023-03-14T08:02:41;9.48;;;4.95;;
21777;SDS011;11050;52.222;20.916;2023-03-14T08:05:07;8.75;;;4.78;;
21777;SDS011;11050;52.222;20.916;2023-03-14T08:07:34;9.95;;;4.93;;
21777;SDS011;11050;52.222;20.916;2023-03-14T08:10:00;8.63;;;4.78;;
21777;SDS011;11050;52.222;20.916;2023-03-14T08:12:25;6.68;;;4.57;;
21777;SDS011;11050;52.222;20.916;2023-03-14T08:14:51;7.25;;;5.10;;
21777;SDS011;11050;52.222;20.916;2023-03-14T08:17:17;9.02;;;5.30;;
21777;SDS011;11050;52.222;20.916;2023-03-14T08:19:43;7.40;;;4.45;;
21777;SDS011;11050;52.222;20.916;2023-03-14T08:22:08;6.00;;;3.88;;
21777;SDS011;11050;52.222;20.916;2023-03-14T08:24:34;5.93;;;3.97;;
21777;SDS011;11050;52.222;20.916;2023-03-14T08:27:00;8.23;;;4.50;;
21777;SDS011;11050;52.222;20.916;2023-03-14T08:29:26;6.32;;;3.88;;
21777;SDS011;11050;52.222;20.916;2023-03-14T08:31:51;10.18;;;4.63;;
21777;SDS011;11050;52.222;20.916;2023-03-14T08:34:17;6.57;;;4.03;;
21777;SDS011;11050;52.222;20.916;2023-03-14T08:36:44;7.85;;;4.35;;
21777;SDS011;11050;52.222;20.916;2023-03-14T08:39:10;5.97;;;4.10;;
21777;SDS011;11050;52.222;20.916;2023-03-14T08:41:36;10.80;;;3.78;;
21777;SDS011;11050;52.222;20.916;2023-03-14T08:44:05;8.35;;;4.80;;
21777;SDS011;11050;52.222;20.916;2023-03-14T08:46:33;6.20;;;3.72;;
21777;SDS011;11050;52.222;20.916;2023-03-14T08:48:58;6.97;;;4.03;;
21777;SDS011;11050;52.222;20.916;2023-03-14T08:51:24;8.00;;;4.47;;
21777;SDS011;11050;52.222;20.916;2023-03-14T08:53:50;5.97;;;4.13;;
21777;SDS011;11050;52.222;20.916;2023-03-14T08:56:16;5.35;;;4.25;;
21777;SDS011;11050;52.222;20.916;2023-03-14T08:58:41;8.98;;;4.07;;
21777;SDS011;11050;52.222;20.916;2023-03-14T09:01:09;6.25;;;4.18;;
21777;SDS011;11050;52.222;20.916;2023-03-14T09:03:36;7.55;;;4.20;;
21777;SDS011;11050;52.222;20.916;2023-03-14T09:06:06;5.78;;;3.83;;
21777;SDS011;11050;52.222;20.916;2023-03-14T09:08:34;8.02;;;4.00;;
21777;SDS011;11050;52.222;20.916;2023-03-14T09:11:01;7.85;;;4.53;;
21777;SDS011;11050;52.222;20.916;2023-03-14T09:13:27;8.43;;;4.53;;
21777;SDS011;11050;52.222;20.916;2023-03-14T09:15:56;7.05;;;3.90;;
21777;SDS011;11050;52.222;20.916;2023-03-14T09:18:22;7.25;;;4.45;;
21777;SDS011;11050;52.222;20.916;2023-03-14T09:20:48;8.10;;;3.80;;
21777;SDS011;11050;52.222;20.916;2023-03-14T09:23:14;8.27;;;4.07;;
21777;SDS011;11050;52.222;20.916;2023-03-14T09:25:41;10.05;;;4.28;;
21777;SDS011;11050;52.222;20.916;2023-03-14T09:28:07;6.38;;;4.20;;
21777;SDS011;11050;52.222;20.916;2023-03-14T09:30:33;8.10;;;4.20;;
21777;SDS011;11050;52.222;20.916;2023-03-14T09:32:59;7.38;;;3.83;;
21777;SDS011;11050;52.222;20.916;2023-03-14T09:35:24;14.48;;;3.65;;
21777;SDS011;11050;52.222;20.916;2023-03-14T09:37:51;6.72;;;3.78;;
21777;SDS011;11050;52.222;20.916;2023-03-14T09:40:17;6.72;;;3.80;;
21777;SDS011;11050;52.222;20.916;2023-03-14T09:42:45;7.68;;;3.97;;
21777;SDS011;11050;52.222;20.916;2023-03-14T09:45:23;6.28;;;3.70;;
21777;SDS011;11050;52.222;20.916;2023-03-14T09:47:53;6.50;;;3.60;;
21777;SDS011;11050;52.222;20.916;2023-03-14T09:50:22;6.75;;;3.60;;
21777;SDS011;11050;52.222;20.916;2023-03-14T09:52:51;4.97;;;3.35;;
21777;SDS011;11050;52.222;20.916;2023-03-14T09:55:27;5.68;;;3.20;;
21777;SDS011;11050;52.222;20.916;2023-03-14T09:57:59;8.52;;;4.65;;
21777;SDS011;11050;52.222;20.916;2023-03-14T10:00:34;8.20;;;4.47;;
21777;SDS011;11050;52.222;20.916;2023-03-14T10:05:39;6.85;;;3.75;;
21777;SDS011;11050;52.222;20.916;2023-03-14T10:08:09;7.78;;;3.90;;
21777;SDS011;11050;52.222;20.916;2023-03-14T10:10:36;6.85;;;3.83;;
21777;SDS011;11050;52.222;20.916;2023-03-14T10:15:46;6.57;;;3.80;;
21777;SDS011;11050;52.222;20.916;2023-03-14T10:18:28;7.32;;;3.60;;
21777;SDS011;11050;52.222;20.916;2023-03-14T10:24:09;4.81;;;3.50;;
21777;SDS011;11050;52.222;20.916;2023-03-14T10:27:17;7.60;;;3.65;;
21777;SDS011;11050;52.222;20.916;2023-03-14T10:29:59;5.40;;;3.80;;
21777;SDS011;11050;52.222;20.916;2023-03-14T10:32:35;6.35;;;3.55;;
21777;SDS011;11050;52.222;20.916;2023-03-14T10:35:08;5.80;;;3.20;;
21777;SDS011;11050;52.222;20.916;2023-03-14T10:40:33;9.55;;;3.67;;
21777;SDS011;11050;52.222;20.916;2023-03-14T10:43:07;7.35;;;3.97;;
21777;SDS011;11050;52.222;20.916;2023-03-14T10:45:42;12.68;;;3.83;;
21777;SDS011;11050;52.222;20.916;2023-03-14T10:48:21;8.48;;;3.97;;
21777;SDS011;11050;52.222;20.916;2023-03-14T10:51:07;5.85;;;3.63;;
21777;SDS011;11050;52.222;20.916;2023-03-14T10:56:35;6.65;;;3.97;;
21777;SDS011;11050;52.222;20.916;2023-03-14T10:59:03;6.68;;;3.63;;
21777;SDS011;11050;52.222;20.916;2023-03-14T11:01:58;8.35;;;3.70;;
21777;SDS011;11050;52.222;20.916;2023-03-14T11:07:57;6.70;;;3.58;;
21777;SDS011;11050;52.222;20.916;2023-03-14T11:10:39;7.82;;;3.70;;
21777;SDS011;11050;52.222;20.916;2023-03-14T11:27:43;6.40;;;3.83;;
21777;SDS011;11050;52.222;20.916;2023-03-14T11:33:04;7.88;;;4.65;;
21777;SDS011;11050;52.222;20.916;2023-03-14T11:38:37;8.30;;;4.35;;
21777;SDS011;11050;52.222;20.916;2023-03-14T11:41:14;7.25;;;3.83;;
21777;SDS011;11050;52.222;20.916;2023-03-14T11:43:47;11.55;;;4.45;;
21777;SDS011;11050;52.222;20.916;2023-03-14T11:46:34;8.43;;;4.25;;
21777;SDS011;11050;52.222;20.916;2023-03-14T11:55:19;10.88;;;4.90;;
21777;SDS011;11050;52.222;20.916;2023-03-14T11:58:09;10.82;;;4.78;;
21777;SDS011;11050;52.222;20.916;2023-03-14T12:00:48;8.68;;;4.70;;
21777;SDS011;11050;52.222;20.916;2023-03-14T12:09:11;7.78;;;4.63;;
21777;SDS011;11050;52.222;20.916;2023-03-14T12:11:58;9.68;;;4.47;;
21777;SDS011;11050;52.222;20.916;2023-03-14T12:14:33;9.48;;;5.18;;
21777;SDS011;11050;52.222;20.916;2023-03-14T12:30:37;14.63;;;5.70;;
21777;SDS011;11050;52.222;20.916;2023-03-14T12:35:57;10.45;;;5.07;;
21777;SDS011;11050;52.222;20.916;2023-03-14T12:44:17;14.35;;;5.95;;
21777;SDS011;11050;52.222;20.916;2023-03-14T12:46:56;16.50;;;6.38;;
21777;SDS011;11050;52.222;20.916;2023-03-14T12:49:48;11.43;;;5.97;;
21777;SDS011;11050;52.222;20.916;2023-03-14T12:52:21;13.13;;;6.05;;
21777;SDS011;11050;52.222;20.916;2023-03-14T12:55:09;8.07;;;5.53;;
21777;SDS011;11050;52.222;20.916;2023-03-14T12:58:01;14.23;;;5.85;;
21777;SDS011;11050;52.222;20.916;2023-03-14T13:00:31;12.68;;;5.78;;
21777;SDS011;11050;52.222;20.916;2023-03-14T13:03:02;8.90;;;6.15;;
21777;SDS011;11050;52.222;20.916;2023-03-14T13:08:34;9.35;;;5.25;;
21777;SDS011;11050;52.222;20.916;2023-03-14T13:11:14;10.60;;;5.68;;
21777;SDS011;11050;52.222;20.916;2023-03-14T13:13:48;13.25;;;6.57;;
21777;SDS011;11050;52.222;20.916;2023-03-14T13:16:22;8.43;;;5.82;;
21777;SDS011;11050;52.222;20.916;2023-03-14T13:18:49;10.43;;;5.80;;
21777;SDS011;11050;52.222;20.916;2023-03-14T13:21:46;10.05;;;6.38;;
21777;SDS011;11050;52.222;20.916;2023-03-14T13:24:23;9.82;;;6.68;;
21777;SDS011;11050;52.222;20.916;2023-03-14T13:26:55;10.25;;;6.50;;
21777;SDS011;11050;52.222;20.916;2023-03-14T13:29:29;9.75;;;6.38;;
21777;SDS011;11050;52.222;20.916;2023-03-14T13:31:58;13.00;;;7.40;;
21777;SDS011;11050;52.222;20.916;2023-03-14T13:34:41;11.48;;;7.35;;
21777;SDS011;11050;52.222;20.916;2023-03-14T13:37:16;14.30;;;7.75;;
21777;SDS011;11050;52.222;20.916;2023-03-14T13:39:51;14.02;;;7.72;;
21777;SDS011;11050;52.222;20.916;2023-03-14T13:42:20;13.77;;;7.00;;
21777;SDS011;11050;52.222;20.916;2023-03-14T13:44:51;21.67;;;7.60;;
21777;SDS011;11050;52.222;20.916;2023-03-14T13:47:21;14.98;;;7.50;;
21777;SDS011;11050;52.222;20.916;2023-03-14T13:49:50;16.27;;;8.30;;
21777;SDS011;11050;52.222;20.916;2023-03-14T13:54:57;18.52;;;7.40;;
21777;SDS011;11050;52.222;20.916;2023-03-14T13:57:25;12.85;;;7.55;;
21777;SDS011;11050;52.222;20.916;2023-03-14T14:00:02;13.50;;;7.63;;
21777;SDS011;11050;52.222;20.916;2023-03-14T14:02:35;13.32;;;8.25;;
21777;SDS011;11050;52.222;20.916;2023-03-14T14:05:04;14.10;;;8.17;;
21777;SDS011;11050;52.222;20.916;2023-03-14T14:07:30;16.87;;;8.93;;
21777;SDS011;11050;52.222;20.916;2023-03-14T14:09:57;15.93;;;8.77;;
21777;SDS011;11050;52.222;20.916;2023-03-14T14:12:30;17.37;;;9.00;;
21777;SDS011;11050;52.222;20.916;2023-03-14T14:15:14;19.33;;;9.80;;
21777;SDS011;11050;52.222;20.916;2023-03-14T14:17:51;20.40;;;10.43;;
21777;SDS011;11050;52.222;20.916;2023-03-14T14:20:30;21.08;;;10.75;;
21777;SDS011;11050;52.222;20.916;2023-03-14T14:23:05;18.02;;;9.20;;
21777;SDS011;11050;52.222;20.916;2023-03-14T14:25:37;12.90;;;7.80;;
21777;SDS011;11050;52.222;20.916;2023-03-14T14:33:46;12.00;;;6.97;;
21777;SDS011;11050;52.222;20.916;2023-03-14T14:36:22;13.57;;;7.50;;
21777;SDS011;11050;52.222;20.916;2023-03-14T14:38:54;16.50;;;7.63;;
21777;SDS011;11050;52.222;20.916;2023-03-14T14:41:40;13.65;;;6.57;;
21777;SDS011;11050;52.222;20.916;2023-03-14T14:44:10;11.63;;;6.45;;
21777;SDS011;11050;52.222;20.916;2023-03-14T14:46:39;11.95;;;6.18;;
21777;SDS011;11050;52.222;20.916;2023-03-14T14:49:12;14.00;;;6.17;;
21777;SDS011;11050;52.222;20.916;2023-03-14T14:51:43;12.52;;;6.30;;
21777;SDS011;11050;52.222;20.916;2023-03-14T14:54:15;10.30;;;6.30;;
21777;SDS011;11050;52.222;20.916;2023-03-14T14:56:46;12.75;;;6.50;;
21777;SDS011;11050;52.222;20.916;2023-03-14T14:59:21;12.27;;;6.15;;
21777;SDS011;11050;52.222;20.916;2023-03-14T15:02:00;13.15;;;7.07;;
21777;SDS011;11050;52.222;20.916;2023-03-14T15:04:47;11.07;;;7.32;;
21777;SDS011;11050;52.222;20.916;2023-03-14T15:07:13;13.77;;;7.97;;
21777;SDS011;11050;52.222;20.916;2023-03-14T15:09:41;12.27;;;7.28;;
21777;SDS011;11050;52.222;20.916;2023-03-14T15:12:08;11.35;;;7.82;;
21777;SDS011;11050;52.222;20.916;2023-03-14T15:14:33;10.75;;;7.25;;
21777;SDS011;11050;52.222;20.916;2023-03-14T15:16:59;12.73;;;7.37;;
21777;SDS011;11050;52.222;20.916;2023-03-14T15:19:25;10.67;;;6.73;;
21777;SDS011;11050;52.222;20.916;2023-03-14T15:21:52;11.13;;;6.57;;
21777;SDS011;11050;52.222;20.916;2023-03-14T15:24:18;15.13;;;7.13;;
21777;SDS011;11050;52.222;20.916;2023-03-14T15:26:44;11.60;;;6.93;;
21777;SDS011;11050;52.222;20.916;2023-03-14T15:29:11;15.93;;;7.97;;
21777;SDS011;11050;52.222;20.916;2023-03-14T15:31:37;14.80;;;7.07;;
21777;SDS011;11050;52.222;20.916;2023-03-14T15:34:05;11.68;;;7.47;;
21777;SDS011;11050;52.222;20.916;2023-03-14T15:36:31;12.20;;;7.70;;
21777;SDS011;11050;52.222;20.916;2023-03-14T15:39:00;15.83;;;8.10;;
21777;SDS011;11050;52.222;20.916;2023-03-14T15:41:28;12.33;;;7.97;;
21777;SDS011;11050;52.222;20.916;2023-03-14T15:43:54;10.37;;;7.20;;
21777;SDS011;11050;52.222;20.916;2023-03-14T15:46:21;11.73;;;7.47;;
21777;SDS011;11050;52.222;20.916;2023-03-14T15:48:47;13.87;;;7.33;;
21777;SDS011;11050;52.222;20.916;2023-03-14T15:51:15;17.27;;;8.20;;
21777;SDS011;11050;52.222;20.916;2023-03-14T15:53:41;12.07;;;7.25;;
21777;SDS011;11050;52.222;20.916;2023-03-14T15:56:12;14.55;;;7.80;;
21777;SDS011;11050;52.222;20.916;2023-03-14T15:58:40;16.85;;;8.05;;
21777;SDS011;11050;52.222;20.916;2023-03-14T16:01:07;15.13;;;8.17;;
21777;SDS011;11050;52.222;20.916;2023-03-14T16:03:34;14.07;;;7.93;;
21777;SDS011;11050;52.222;20.916;2023-03-14T16:06:00;14.55;;;7.63;;
21777;SDS011;11050;52.222;20.916;2023-03-14T16:08:27;13.90;;;7.88;;
21777;SDS011;11050;52.222;20.916;2023-03-14T16:10:54;13.52;;;7.68;;
21777;SDS011;11050;52.222;20.916;2023-03-14T16:13:22;15.23;;;9.25;;
21777;SDS011;11050;52.222;20.916;2023-03-14T16:15:55;15.18;;;8.48;;
21777;SDS011;11050;52.222;20.916;2023-03-14T16:18:23;14.48;;;8.40;;
21777;SDS011;11050;52.222;20.916;2023-03-14T16:20:54;11.00;;;7.93;;
21777;SDS011;11050;52.222;20.916;2023-03-14T16:23:22;17.23;;;8.73;;
21777;SDS011;11050;52.222;20.916;2023-03-14T16:25:48;16.05;;;8.45;;